sensor_id;sensor_type;location;lat;lon;timestamp;pressure;altitude;pressure_sealevel;temperature
70389;BMP280;58659;49.050;8.530;2022-12-17T00:01:01;100196.59;;;-6.84
70389;BMP280;58659;49.050;8.530;2022-12-17T00:03:45;100200.69;;;-6.83
70389;BMP280;58659;49.050;8.530;2022-12-17T00:06:30;100201.81;;;-6.79
70389;BMP280;58659;49.050;8.530;2022-12-17T00:09:13;100206.75;;;-6.84
70389;BMP280;58659;49.050;8.530;2022-12-17T00:11:57;100220.31;;;-6.90
70389;BMP280;58659;49.050;8.530;2022-12-17T00:14:41;100214.47;;;-6.90
70389;BMP280;58659;49.050;8.530;2022-12-17T00:17:25;100225.69;;;-6.98
70389;BMP280;58659;49.050;8.530;2022-12-17T00:20:09;100236.00;;;-6.93
70389;BMP280;58659;49.050;8.530;2022-12-17T00:23:01;100233.22;;;-6.91
70389;BMP280;58659;49.050;8.530;2022-12-17T00:25:54;100232.16;;;-6.84
70389;BMP280;58659;49.050;8.530;2022-12-17T00:28:38;100216.91;;;-6.84
70389;BMP280;58659;49.050;8.530;2022-12-17T00:31:25;100217.88;;;-6.85
70389;BMP280;58659;49.050;8.530;2022-12-17T00:34:09;100224.00;;;-6.86
70389;BMP280;58659;49.050;8.530;2022-12-17T00:36:53;100234.69;;;-6.84
70389;BMP280;58659;49.050;8.530;2022-12-17T00:39:37;100237.94;;;-6.95
70389;BMP280;58659;49.050;8.530;2022-12-17T00:42:21;100240.69;;;-6.97
70389;BMP280;58659;49.050;8.530;2022-12-17T00:45:05;100242.13;;;-7.01
70389;BMP280;58659;49.050;8.530;2022-12-17T00:47:49;100270.97;;;-7.13
70389;BMP280;58659;49.050;8.530;2022-12-17T00:50:33;100288.34;;;-7.28
70389;BMP280;58659;49.050;8.530;2022-12-17T00:53:17;100293.78;;;-7.32
70389;BMP280;58659;49.050;8.530;2022-12-17T00:56:01;100287.81;;;-7.37
70389;BMP280;58659;49.050;8.530;2022-12-17T00:58:45;100288.16;;;-7.52
70389;BMP280;58659;49.050;8.530;2022-12-17T01:01:29;100287.72;;;-7.49
70389;BMP280;58659;49.050;8.530;2022-12-17T01:04:13;100285.63;;;-7.52
70389;BMP280;58659;49.050;8.530;2022-12-17T01:06:57;100293.25;;;-7.34
70389;BMP280;58659;49.050;8.530;2022-12-17T01:09:41;100291.69;;;-7.35
70389;BMP280;58659;49.050;8.530;2022-12-17T01:12:25;100298.16;;;-7.39
70389;BMP280;58659;49.050;8.530;2022-12-17T01:15:09;100300.28;;;-7.36
70389;BMP280;58659;49.050;8.530;2022-12-17T01:17:53;100297.91;;;-7.30
70389;BMP280;58659;49.050;8.530;2022-12-17T01:20:37;100306.22;;;-7.23
70389;BMP280;58659;49.050;8.530;2022-12-17T01:23:20;100306.38;;;-7.18
70389;BMP280;58659;49.050;8.530;2022-12-17T01:26:04;100304.56;;;-7.11
70389;BMP280;58659;49.050;8.530;2022-12-17T01:28:48;100300.72;;;-7.20
70389;BMP280;58659;49.050;8.530;2022-12-17T01:31:32;100294.84;;;-7.21
70389;BMP280;58659;49.050;8.530;2022-12-17T01:34:17;100291.97;;;-7.24
70389;BMP280;58659;49.050;8.530;2022-12-17T01:37:00;100303.84;;;-7.18
70389;BMP280;58659;49.050;8.530;2022-12-17T01:39:44;100305.53;;;-7.12
70389;BMP280;58659;49.050;8.530;2022-12-17T01:42:37;100310.53;;;-7.24
70389;BMP280;58659;49.050;8.530;2022-12-17T01:45:21;100326.53;;;-7.23
70389;BMP280;58659;49.050;8.530;2022-12-17T01:48:10;100332.81;;;-7.26
70389;BMP280;58659;49.050;8.530;2022-12-17T01:50:57;100350.38;;;-7.24
70389;BMP280;58659;49.050;8.530;2022-12-17T01:53:50;100337.38;;;-7.35
70389;BMP280;58659;49.050;8.530;2022-12-17T01:56:37;100359.84;;;-7.38
70389;BMP280;58659;49.050;8.530;2022-12-17T01:59:31;100365.91;;;-7.64
70389;BMP280;58659;49.050;8.530;2022-12-17T02:02:19;100357.41;;;-7.76
70389;BMP280;58659;49.050;8.530;2022-12-17T02:05:03;100372.94;;;-7.66
70389;BMP280;58659;49.050;8.530;2022-12-17T02:11:12;100371.19;;;-8.04
70389;BMP280;58659;49.050;8.530;2022-12-17T02:14:15;100373.97;;;-8.05
70389;BMP280;58659;49.050;8.530;2022-12-17T02:17:06;100364.00;;;-8.07
70389;BMP280;58659;49.050;8.530;2022-12-17T02:26:03;100364.75;;;-7.99
70389;BMP280;58659;49.050;8.530;2022-12-17T02:28:50;100374.88;;;-7.99
70389;BMP280;58659;49.050;8.530;2022-12-17T02:31:39;100376.97;;;-7.90
70389;BMP280;58659;49.050;8.530;2022-12-17T02:34:23;100371.03;;;-7.77
70389;BMP280;58659;49.050;8.530;2022-12-17T02:37:07;100362.19;;;-7.68
70389;BMP280;58659;49.050;8.530;2022-12-17T02:39:51;100381.34;;;-7.65
70389;BMP280;58659;49.050;8.530;2022-12-17T02:42:35;100381.56;;;-7.74
70389;BMP280;58659;49.050;8.530;2022-12-17T02:45:19;100383.91;;;-7.72
70389;BMP280;58659;49.050;8.530;2022-12-17T02:48:05;100399.53;;;-7.75
70389;BMP280;58659;49.050;8.530;2022-12-17T02:50:50;100392.50;;;-7.73
70389;BMP280;58659;49.050;8.530;2022-12-17T02:53:34;100411.38;;;-7.69
70389;BMP280;58659;49.050;8.530;2022-12-17T02:56:24;100407.72;;;-7.73
70389;BMP280;58659;49.050;8.530;2022-12-17T02:59:08;100420.59;;;-7.75
70389;BMP280;58659;49.050;8.530;2022-12-17T03:01:51;100429.63;;;-7.85
70389;BMP280;58659;49.050;8.530;2022-12-17T03:04:35;100418.94;;;-7.87
70389;BMP280;58659;49.050;8.530;2022-12-17T03:07:19;100426.25;;;-7.73
70389;BMP280;58659;49.050;8.530;2022-12-17T03:10:04;100421.94;;;-7.72
70389;BMP280;58659;49.050;8.530;2022-12-17T03:12:48;100431.63;;;-7.87
70389;BMP280;58659;49.050;8.530;2022-12-17T03:15:32;100442.41;;;-8.05
70389;BMP280;58659;49.050;8.530;2022-12-17T03:18:16;100443.41;;;-8.13
70389;BMP280;58659;49.050;8.530;2022-12-17T03:21:14;100441.53;;;-8.30
70389;BMP280;58659;49.050;8.530;2022-12-17T03:23:57;100430.94;;;-8.21
70389;BMP280;58659;49.050;8.530;2022-12-17T03:26:42;100435.16;;;-8.01
70389;BMP280;58659;49.050;8.530;2022-12-17T03:29:26;100421.47;;;-7.87
70389;BMP280;58659;49.050;8.530;2022-12-17T03:32:10;100414.34;;;-7.72
70389;BMP280;58659;49.050;8.530;2022-12-17T03:34:53;100418.09;;;-7.50
70389;BMP280;58659;49.050;8.530;2022-12-17T03:37:38;100426.72;;;-7.26
70389;BMP280;58659;49.050;8.530;2022-12-17T03:40:21;100399.09;;;-6.91
70389;BMP280;58659;49.050;8.530;2022-12-17T03:43:09;100379.41;;;-6.59
70389;BMP280;58659;49.050;8.530;2022-12-17T03:45:54;100396.53;;;-6.36
70389;BMP280;58659;49.050;8.530;2022-12-17T03:48:37;100386.22;;;-6.23
70389;BMP280;58659;49.050;8.530;2022-12-17T03:51:21;100400.25;;;-6.02
70389;BMP280;58659;49.050;8.530;2022-12-17T03:54:05;100401.97;;;-5.84
70389;BMP280;58659;49.050;8.530;2022-12-17T03:56:49;100386.94;;;-5.74
70389;BMP280;58659;49.050;8.530;2022-12-17T03:59:33;100390.94;;;-5.67
70389;BMP280;58659;49.050;8.530;2022-12-17T04:02:17;100398.03;;;-5.57
70389;BMP280;58659;49.050;8.530;2022-12-17T04:05:01;100414.66;;;-5.55
70389;BMP280;58659;49.050;8.530;2022-12-17T04:07:45;100410.56;;;-5.44
70389;BMP280;58659;49.050;8.530;2022-12-17T04:10:29;100414.44;;;-5.41
70389;BMP280;58659;49.050;8.530;2022-12-17T04:13:13;100418.97;;;-5.43
70389;BMP280;58659;49.050;8.530;2022-12-17T04:15:57;100427.59;;;-5.44
70389;BMP280;58659;49.050;8.530;2022-12-17T04:18:58;100458.25;;;-5.51
70389;BMP280;58659;49.050;8.530;2022-12-17T04:21:42;100469.19;;;-5.62
70389;BMP280;58659;49.050;8.530;2022-12-17T04:24:25;100489.75;;;-5.64
70389;BMP280;58659;49.050;8.530;2022-12-17T04:27:09;100503.56;;;-5.71
70389;BMP280;58659;49.050;8.530;2022-12-17T04:29:53;100503.75;;;-5.84
70389;BMP280;58659;49.050;8.530;2022-12-17T04:32:37;100501.75;;;-5.82
70389;BMP280;58659;49.050;8.530;2022-12-17T04:35:21;100489.13;;;-5.77
70389;BMP280;58659;49.050;8.530;2022-12-17T04:38:05;100494.59;;;-5.74
70389;BMP280;58659;49.050;8.530;2022-12-17T04:40:49;100489.31;;;-5.72
70389;BMP280;58659;49.050;8.530;2022-12-17T04:43:33;100473.59;;;-5.69
70389;BMP280;58659;49.050;8.530;2022-12-17T04:46:31;100482.22;;;-5.70
70389;BMP280;58659;49.050;8.530;2022-12-17T04:49:15;100472.59;;;-5.68
70389;BMP280;58659;49.050;8.530;2022-12-17T04:51:58;100466.75;;;-5.57
70389;BMP280;58659;49.050;8.530;2022-12-17T04:54:42;100459.22;;;-5.64
70389;BMP280;58659;49.050;8.530;2022-12-17T04:57:26;100441.97;;;-5.62
70389;BMP280;58659;49.050;8.530;2022-12-17T05:00:11;100451.28;;;-5.56
70389;BMP280;58659;49.050;8.530;2022-12-17T05:03:10;100456.69;;;-5.52
70389;BMP280;58659;49.050;8.530;2022-12-17T05:05:54;100470.53;;;-5.48
70389;BMP280;58659;49.050;8.530;2022-12-17T05:08:39;100471.16;;;-5.64
70389;BMP280;58659;49.050;8.530;2022-12-17T05:11:23;100473.59;;;-5.69
70389;BMP280;58659;49.050;8.530;2022-12-17T05:14:07;100466.47;;;-5.79
70389;BMP280;58659;49.050;8.530;2022-12-17T05:16:51;100478.53;;;-5.74
70389;BMP280;58659;49.050;8.530;2022-12-17T05:19:35;100468.63;;;-5.64
70389;BMP280;58659;49.050;8.530;2022-12-17T05:22:19;100469.88;;;-5.55
70389;BMP280;58659;49.050;8.530;2022-12-17T05:25:04;100472.97;;;-5.53
70389;BMP280;58659;49.050;8.530;2022-12-17T05:27:48;100479.97;;;-5.49
70389;BMP280;58659;49.050;8.530;2022-12-17T05:30:32;100479.69;;;-5.59
70389;BMP280;58659;49.050;8.530;2022-12-17T05:33:16;100471.09;;;-5.46
70389;BMP280;58659;49.050;8.530;2022-12-17T05:36:00;100473.22;;;-5.43
70389;BMP280;58659;49.050;8.530;2022-12-17T05:38:46;100481.97;;;-5.39
70389;BMP280;58659;49.050;8.530;2022-12-17T05:41:30;100487.16;;;-5.45
70389;BMP280;58659;49.050;8.530;2022-12-17T05:44:14;100486.16;;;-5.56
70389;BMP280;58659;49.050;8.530;2022-12-17T05:46:58;100482.63;;;-5.55
70389;BMP280;58659;49.050;8.530;2022-12-17T05:49:42;100495.00;;;-5.47
70389;BMP280;58659;49.050;8.530;2022-12-17T05:52:26;100496.13;;;-5.43
70389;BMP280;58659;49.050;8.530;2022-12-17T05:55:09;100495.03;;;-5.35
70389;BMP280;58659;49.050;8.530;2022-12-17T05:58:04;100507.75;;;-5.35
70389;BMP280;58659;49.050;8.530;2022-12-17T06:00:48;100512.53;;;-5.69
70389;BMP280;58659;49.050;8.530;2022-12-17T06:03:32;100511.97;;;-5.89
70389;BMP280;58659;49.050;8.530;2022-12-17T06:06:16;100524.50;;;-5.88
70389;BMP280;58659;49.050;8.530;2022-12-17T06:09:00;100496.72;;;-5.89
70389;BMP280;58659;49.050;8.530;2022-12-17T06:11:44;100502.03;;;-5.72
70389;BMP280;58659;49.050;8.530;2022-12-17T06:14:28;100507.66;;;-5.70
70389;BMP280;58659;49.050;8.530;2022-12-17T06:17:12;100510.63;;;-5.73
70389;BMP280;58659;49.050;8.530;2022-12-17T06:19:56;100514.03;;;-5.79
70389;BMP280;58659;49.050;8.530;2022-12-17T06:22:40;100520.69;;;-5.78
70389;BMP280;58659;49.050;8.530;2022-12-17T06:25:24;100517.66;;;-5.87
70389;BMP280;58659;49.050;8.530;2022-12-17T06:28:08;100518.22;;;-6.03
70389;BMP280;58659;49.050;8.530;2022-12-17T06:30:52;100533.28;;;-6.02
70389;BMP280;58659;49.050;8.530;2022-12-17T06:33:37;100541.47;;;-6.00
70389;BMP280;58659;49.050;8.530;2022-12-17T06:36:21;100544.22;;;-6.01
70389;BMP280;58659;49.050;8.530;2022-12-17T06:39:05;100547.69;;;-5.96
70389;BMP280;58659;49.050;8.530;2022-12-17T06:41:49;100539.75;;;-5.88
70389;BMP280;58659;49.050;8.530;2022-12-17T06:44:33;100545.19;;;-5.84
70389;BMP280;58659;49.050;8.530;2022-12-17T06:47:17;100548.81;;;-5.73
70389;BMP280;58659;49.050;8.530;2022-12-17T06:50:02;100555.59;;;-5.67
70389;BMP280;58659;49.050;8.530;2022-12-17T06:52:46;100552.03;;;-5.66
70389;BMP280;58659;49.050;8.530;2022-12-17T06:55:33;100560.94;;;-5.75
70389;BMP280;58659;49.050;8.530;2022-12-17T06:58:17;100552.13;;;-5.73
70389;BMP280;58659;49.050;8.530;2022-12-17T07:01:01;100560.75;;;-5.74
70389;BMP280;58659;49.050;8.530;2022-12-17T07:03:45;100547.13;;;-5.79
70389;BMP280;58659;49.050;8.530;2022-12-17T07:06:29;100571.00;;;-5.80
70389;BMP280;58659;49.050;8.530;2022-12-17T07:09:13;100574.75;;;-5.83
70389;BMP280;58659;49.050;8.530;2022-12-17T07:11:57;100573.13;;;-5.96
70389;BMP280;58659;49.050;8.530;2022-12-17T07:14:41;100577.59;;;-5.91
70389;BMP280;58659;49.050;8.530;2022-12-17T07:17:25;100585.72;;;-6.01
70389;BMP280;58659;49.050;8.530;2022-12-17T07:20:09;100588.03;;;-5.99
70389;BMP280;58659;49.050;8.530;2022-12-17T07:22:56;100595.72;;;-6.06
70389;BMP280;58659;49.050;8.530;2022-12-17T07:25:41;100596.31;;;-6.04
70389;BMP280;58659;49.050;8.530;2022-12-17T07:28:25;100602.28;;;-6.16
70389;BMP280;58659;49.050;8.530;2022-12-17T07:31:09;100613.88;;;-6.20
70389;BMP280;58659;49.050;8.530;2022-12-17T07:33:53;100614.88;;;-6.22
70389;BMP280;58659;49.050;8.530;2022-12-17T07:36:36;100612.66;;;-6.18
70389;BMP280;58659;49.050;8.530;2022-12-17T07:39:20;100626.94;;;-6.17
70389;BMP280;58659;49.050;8.530;2022-12-17T07:42:04;100643.47;;;-6.26
70389;BMP280;58659;49.050;8.530;2022-12-17T07:44:48;100653.06;;;-6.28
70389;BMP280;58659;49.050;8.530;2022-12-17T07:47:32;100639.50;;;-6.22
70389;BMP280;58659;49.050;8.530;2022-12-17T07:50:16;100664.06;;;-6.09
70389;BMP280;58659;49.050;8.530;2022-12-17T07:53:03;100671.22;;;-6.25
70389;BMP280;58659;49.050;8.530;2022-12-17T07:55:47;100676.94;;;-6.29
70389;BMP280;58659;49.050;8.530;2022-12-17T07:58:31;100673.66;;;-6.36
70389;BMP280;58659;49.050;8.530;2022-12-17T08:01:15;100680.16;;;-6.47
70389;BMP280;58659;49.050;8.530;2022-12-17T08:03:59;100687.34;;;-6.37
70389;BMP280;58659;49.050;8.530;2022-12-17T08:06:43;100688.19;;;-6.43
70389;BMP280;58659;49.050;8.530;2022-12-17T08:09:27;100693.66;;;-6.46
70389;BMP280;58659;49.050;8.530;2022-12-17T08:12:11;100706.75;;;-6.43
70389;BMP280;58659;49.050;8.530;2022-12-17T08:14:55;100708.72;;;-6.45
70389;BMP280;58659;49.050;8.530;2022-12-17T08:17:39;100710.06;;;-6.42
70389;BMP280;58659;49.050;8.530;2022-12-17T08:20:23;100707.78;;;-6.50
70389;BMP280;58659;49.050;8.530;2022-12-17T08:23:07;100719.91;;;-6.52
70389;BMP280;58659;49.050;8.530;2022-12-17T08:25:51;100732.78;;;-6.47
70389;BMP280;58659;49.050;8.530;2022-12-17T08:28:35;100730.56;;;-6.37
70389;BMP280;58659;49.050;8.530;2022-12-17T08:31:19;100728.25;;;-6.14
70389;BMP280;58659;49.050;8.530;2022-12-17T08:34:03;100729.94;;;-6.01
70389;BMP280;58659;49.050;8.530;2022-12-17T08:36:47;100727.13;;;-5.93
70389;BMP280;58659;49.050;8.530;2022-12-17T08:39:31;100735.50;;;-5.86
70389;BMP280;58659;49.050;8.530;2022-12-17T08:42:15;100735.44;;;-5.79
70389;BMP280;58659;49.050;8.530;2022-12-17T08:44:59;100741.63;;;-5.75
70389;BMP280;58659;49.050;8.530;2022-12-17T08:47:43;100743.97;;;-5.74
70389;BMP280;58659;49.050;8.530;2022-12-17T08:50:26;100742.91;;;-5.84
70389;BMP280;58659;49.050;8.530;2022-12-17T08:53:10;100737.84;;;-5.84
70389;BMP280;58659;49.050;8.530;2022-12-17T08:55:54;100739.16;;;-5.82
70389;BMP280;58659;49.050;8.530;2022-12-17T08:58:38;100738.50;;;-5.77
70389;BMP280;58659;49.050;8.530;2022-12-17T09:01:22;100742.91;;;-5.66
70389;BMP280;58659;49.050;8.530;2022-12-17T09:04:06;100737.59;;;-5.40
70389;BMP280;58659;49.050;8.530;2022-12-17T09:06:50;100729.09;;;-5.34
70389;BMP280;58659;49.050;8.530;2022-12-17T09:09:34;100739.78;;;-5.43
70389;BMP280;58659;49.050;8.530;2022-12-17T09:12:18;100745.16;;;-5.52
70389;BMP280;58659;49.050;8.530;2022-12-17T09:15:02;100747.38;;;-5.37
70389;BMP280;58659;49.050;8.530;2022-12-17T09:17:47;100752.88;;;-5.22
70389;BMP280;58659;49.050;8.530;2022-12-17T09:20:33;100761.41;;;-5.53
70389;BMP280;58659;49.050;8.530;2022-12-17T09:23:17;100752.06;;;-5.59
70389;BMP280;58659;49.050;8.530;2022-12-17T09:26:05;100755.97;;;-5.56
70389;BMP280;58659;49.050;8.530;2022-12-17T09:28:49;100749.47;;;-5.52
70389;BMP280;58659;49.050;8.530;2022-12-17T09:31:33;100771.25;;;-5.56
70389;BMP280;58659;49.050;8.530;2022-12-17T09:34:17;100769.81;;;-5.52
70389;BMP280;58659;49.050;8.530;2022-12-17T09:37:02;100762.69;;;-5.43
70389;BMP280;58659;49.050;8.530;2022-12-17T09:39:46;100763.97;;;-5.34
70389;BMP280;58659;49.050;8.530;2022-12-17T09:42:40;100782.00;;;-5.36
70389;BMP280;58659;49.050;8.530;2022-12-17T09:45:41;100777.72;;;-5.42
70389;BMP280;58659;49.050;8.530;2022-12-17T09:48:33;100778.06;;;-5.32
70389;BMP280;58659;49.050;8.530;2022-12-17T09:51:24;100755.56;;;-5.35
70389;BMP280;58659;49.050;8.530;2022-12-17T09:54:31;100780.69;;;-5.20
70389;BMP280;58659;49.050;8.530;2022-12-17T09:57:20;100790.09;;;-5.21
70389;BMP280;58659;49.050;8.530;2022-12-17T10:00:20;100792.50;;;-5.07
70389;BMP280;58659;49.050;8.530;2022-12-17T10:03:14;100793.97;;;-5.18
70389;BMP280;58659;49.050;8.530;2022-12-17T10:06:03;100794.31;;;-4.96
70389;BMP280;58659;49.050;8.530;2022-12-17T10:08:53;100802.72;;;-5.07
70389;BMP280;58659;49.050;8.530;2022-12-17T10:11:38;100795.72;;;-4.82
70389;BMP280;58659;49.050;8.530;2022-12-17T10:14:24;100800.00;;;-4.64
70389;BMP280;58659;49.050;8.530;2022-12-17T10:17:17;100813.53;;;-4.64
70389;BMP280;58659;49.050;8.530;2022-12-17T10:20:03;100821.59;;;-4.49
70389;BMP280;58659;49.050;8.530;2022-12-17T10:22:48;100827.19;;;-4.58
70389;BMP280;58659;49.050;8.530;2022-12-17T10:25:34;100814.63;;;-4.42
70389;BMP280;58659;49.050;8.530;2022-12-17T10:28:23;100809.78;;;-4.31
70389;BMP280;58659;49.050;8.530;2022-12-17T10:31:19;100801.38;;;-4.20
70389;BMP280;58659;49.050;8.530;2022-12-17T10:34:18;100808.75;;;-4.12
70389;BMP280;58659;49.050;8.530;2022-12-17T10:37:03;100813.50;;;-4.04
70389;BMP280;58659;49.050;8.530;2022-12-17T10:39:59;100819.94;;;-4.13
70389;BMP280;58659;49.050;8.530;2022-12-17T10:42:44;100813.97;;;-4.07
70389;BMP280;58659;49.050;8.530;2022-12-17T10:45:33;100819.41;;;-3.92
70389;BMP280;58659;49.050;8.530;2022-12-17T10:48:23;100832.94;;;-3.80
70389;BMP280;58659;49.050;8.530;2022-12-17T10:54:28;100842.66;;;-3.70
70389;BMP280;58659;49.050;8.530;2022-12-17T10:57:29;100847.38;;;-3.74
70389;BMP280;58659;49.050;8.530;2022-12-17T11:02:58;100849.16;;;-3.86
70389;BMP280;58659;49.050;8.530;2022-12-17T11:05:42;100850.84;;;-3.57
70389;BMP280;58659;49.050;8.530;2022-12-17T11:08:28;100863.97;;;-3.41
70389;BMP280;58659;49.050;8.530;2022-12-17T11:11:13;100854.53;;;-3.52
70389;BMP280;58659;49.050;8.530;2022-12-17T11:13:59;100858.97;;;-3.60
70389;BMP280;58659;49.050;8.530;2022-12-17T11:16:49;100870.75;;;-3.47
70389;BMP280;58659;49.050;8.530;2022-12-17T11:19:49;100877.75;;;-3.42
70389;BMP280;58659;49.050;8.530;2022-12-17T11:22:44;100876.06;;;-3.48
70389;BMP280;58659;49.050;8.530;2022-12-17T11:25:41;100871.06;;;-3.43
70389;BMP280;58659;49.050;8.530;2022-12-17T11:28:29;100872.84;;;-3.21
70389;BMP280;58659;49.050;8.530;2022-12-17T11:37:20;100881.38;;;-3.15
70389;BMP280;58659;49.050;8.530;2022-12-17T11:43:45;100888.72;;;-3.30
70389;BMP280;58659;49.050;8.530;2022-12-17T11:46:58;100884.06;;;-3.33
70389;BMP280;58659;49.050;8.530;2022-12-17T11:52:52;100879.41;;;-3.36
70389;BMP280;58659;49.050;8.530;2022-12-17T11:58:59;100882.28;;;-3.44
70389;BMP280;58659;49.050;8.530;2022-12-17T12:01:57;100879.72;;;-3.33
70389;BMP280;58659;49.050;8.530;2022-12-17T12:08:44;100888.13;;;-2.97
70389;BMP280;58659;49.050;8.530;2022-12-17T12:11:47;100884.72;;;-3.26
70389;BMP280;58659;49.050;8.530;2022-12-17T12:20:34;100881.50;;;-3.45
70389;BMP280;58659;49.050;8.530;2022-12-17T12:23:36;100886.84;;;-3.70
70389;BMP280;58659;49.050;8.530;2022-12-17T12:26:29;100888.91;;;-3.90
70389;BMP280;58659;49.050;8.530;2022-12-17T12:35:59;100895.28;;;-3.99
70389;BMP280;58659;49.050;8.530;2022-12-17T12:38:47;100886.22;;;-3.95
70389;BMP280;58659;49.050;8.530;2022-12-17T12:41:41;100880.16;;;-3.82
70389;BMP280;58659;49.050;8.530;2022-12-17T12:47:46;100896.59;;;-3.67
70389;BMP280;58659;49.050;8.530;2022-12-17T12:53:35;100899.44;;;-3.86
70389;BMP280;58659;49.050;8.530;2022-12-17T12:56:24;100899.78;;;-3.83
70389;BMP280;58659;49.050;8.530;2022-12-17T12:59:24;100891.78;;;-3.75
70389;BMP280;58659;49.050;8.530;2022-12-17T13:02:28;100884.72;;;-3.61
70389;BMP280;58659;49.050;8.530;2022-12-17T13:05:31;100886.72;;;-3.28
70389;BMP280;58659;49.050;8.530;2022-12-17T13:08:02;100885.06;;;-3.11
70389;BMP280;58659;49.050;8.530;2022-12-17T13:10:30;100880.34;;;-2.91
70389;BMP280;58659;49.050;8.530;2022-12-17T13:12:59;100882.97;;;-2.74
70389;BMP280;58659;49.050;8.530;2022-12-17T13:15:42;100877.88;;;-2.86
70389;BMP280;58659;49.050;8.530;2022-12-17T13:18:35;100873.03;;;-2.87
70389;BMP280;58659;49.050;8.530;2022-12-17T13:21:22;100871.16;;;-2.63
70389;BMP280;58659;49.050;8.530;2022-12-17T13:23:47;100888.28;;;-2.64
70389;BMP280;58659;49.050;8.530;2022-12-17T13:26:30;100894.41;;;-2.36
70389;BMP280;58659;49.050;8.530;2022-12-17T13:29:28;100898.41;;;-2.29
70389;BMP280;58659;49.050;8.530;2022-12-17T13:42:43;100892.66;;;-2.76
70389;BMP280;58659;49.050;8.530;2022-12-17T13:45:14;100905.56;;;-2.83
70389;BMP280;58659;49.050;8.530;2022-12-17T13:47:40;100902.16;;;-2.88
70389;BMP280;58659;49.050;8.530;2022-12-17T13:50:37;100909.03;;;-2.89
70389;BMP280;58659;49.050;8.530;2022-12-17T13:53:14;100914.84;;;-2.93
70389;BMP280;58659;49.050;8.530;2022-12-17T13:55:39;100914.94;;;-3.00
70389;BMP280;58659;49.050;8.530;2022-12-17T13:58:04;100911.38;;;-2.99
70389;BMP280;58659;49.050;8.530;2022-12-17T14:00:30;100911.72;;;-3.07
70389;BMP280;58659;49.050;8.530;2022-12-17T14:02:56;100909.16;;;-3.07
70389;BMP280;58659;49.050;8.530;2022-12-17T14:05:29;100908.50;;;-3.14
70389;BMP280;58659;49.050;8.530;2022-12-17T14:07:59;100908.63;;;-3.21
70389;BMP280;58659;49.050;8.530;2022-12-17T14:10:25;100900.03;;;-3.26
70389;BMP280;58659;49.050;8.530;2022-12-17T14:12:50;100909.50;;;-3.27
70389;BMP280;58659;49.050;8.530;2022-12-17T14:15:23;100910.25;;;-3.26
70389;BMP280;58659;49.050;8.530;2022-12-17T14:17:50;100903.06;;;-3.29
70389;BMP280;58659;49.050;8.530;2022-12-17T14:20:22;100903.84;;;-3.29
70389;BMP280;58659;49.050;8.530;2022-12-17T14:22:50;100897.50;;;-3.38
70389;BMP280;58659;49.050;8.530;2022-12-17T14:25:19;100901.72;;;-3.43
70389;BMP280;58659;49.050;8.530;2022-12-17T14:27:57;100906.16;;;-3.50
70389;BMP280;58659;49.050;8.530;2022-12-17T14:30:35;100898.38;;;-3.55
70389;BMP280;58659;49.050;8.530;2022-12-17T14:33:01;100897.16;;;-3.65
70389;BMP280;58659;49.050;8.530;2022-12-17T14:35:34;100881.50;;;-3.57
70389;BMP280;58659;49.050;8.530;2022-12-17T14:38:00;100876.47;;;-3.75
70389;BMP280;58659;49.050;8.530;2022-12-17T14:40:26;100874.91;;;-3.87
70389;BMP280;58659;49.050;8.530;2022-12-17T14:42:57;100878.75;;;-3.97
70389;BMP280;58659;49.050;8.530;2022-12-17T14:45:25;100882.28;;;-4.09
70389;BMP280;58659;49.050;8.530;2022-12-17T14:47:58;100860.78;;;-4.02
70389;BMP280;58659;49.050;8.530;2022-12-17T14:52:53;100857.69;;;-4.33
70389;BMP280;58659;49.050;8.530;2022-12-17T14:55:37;100871.75;;;-4.43
70389;BMP280;58659;49.050;8.530;2022-12-17T15:03:30;100866.16;;;-4.69
70389;BMP280;58659;49.050;8.530;2022-12-17T15:06:01;100865.88;;;-4.80
70389;BMP280;58659;49.050;8.530;2022-12-17T15:08:31;100858.75;;;-4.89
70389;BMP280;58659;49.050;8.530;2022-12-17T15:10:57;100858.44;;;-4.99
70389;BMP280;58659;49.050;8.530;2022-12-17T15:13:22;100863.84;;;-5.07
70389;BMP280;58659;49.050;8.530;2022-12-17T15:15:48;100858.44;;;-5.18
70389;BMP280;58659;49.050;8.530;2022-12-17T15:18:13;100864.00;;;-5.27
70389;BMP280;58659;49.050;8.530;2022-12-17T15:20:38;100868.53;;;-5.29
70389;BMP280;58659;49.050;8.530;2022-12-17T15:23:04;100856.53;;;-5.47
70389;BMP280;58659;49.050;8.530;2022-12-17T15:25:29;100857.97;;;-5.58
70389;BMP280;58659;49.050;8.530;2022-12-17T15:27:54;100870.38;;;-5.61
70389;BMP280;58659;49.050;8.530;2022-12-17T15:30:20;100856.22;;;-5.57
70389;BMP280;58659;49.050;8.530;2022-12-17T15:32:45;100854.91;;;-5.66
70389;BMP280;58659;49.050;8.530;2022-12-17T15:35:11;100867.50;;;-5.71
70389;BMP280;58659;49.050;8.530;2022-12-17T15:37:37;100860.47;;;-5.76
70389;BMP280;58659;49.050;8.530;2022-12-17T15:40:04;100854.88;;;-5.84
70389;BMP280;58659;49.050;8.530;2022-12-17T15:42:29;100861.31;;;-5.89
70389;BMP280;58659;49.050;8.530;2022-12-17T15:45:13;100865.13;;;-5.98
70389;BMP280;58659;49.050;8.530;2022-12-17T15:47:39;100856.94;;;-6.06
70389;BMP280;58659;49.050;8.530;2022-12-17T15:50:04;100844.66;;;-6.09
70389;BMP280;58659;49.050;8.530;2022-12-17T15:52:30;100833.72;;;-6.16
70389;BMP280;58659;49.050;8.530;2022-12-17T15:54:55;100833.75;;;-6.23
70389;BMP280;58659;49.050;8.530;2022-12-17T15:57:20;100823.44;;;-6.28
70389;BMP280;58659;49.050;8.530;2022-12-17T15:59:46;100833.78;;;-6.30
70389;BMP280;58659;49.050;8.530;2022-12-17T16:02:11;100828.09;;;-6.32
70389;BMP280;58659;49.050;8.530;2022-12-17T16:04:36;100834.75;;;-6.31
70389;BMP280;58659;49.050;8.530;2022-12-17T16:07:03;100836.34;;;-6.36
70389;BMP280;58659;49.050;8.530;2022-12-17T16:09:28;100839.09;;;-6.38
70389;BMP280;58659;49.050;8.530;2022-12-17T16:11:54;100846.75;;;-6.44
70389;BMP280;58659;49.050;8.530;2022-12-17T16:14:20;100849.50;;;-6.46
70389;BMP280;58659;49.050;8.530;2022-12-17T16:16:46;100839.53;;;-6.47
70389;BMP280;58659;49.050;8.530;2022-12-17T16:19:11;100840.75;;;-6.56
70389;BMP280;58659;49.050;8.530;2022-12-17T16:21:36;100844.66;;;-6.61
70389;BMP280;58659;49.050;8.530;2022-12-17T16:24:02;100850.31;;;-6.59
70389;BMP280;58659;49.050;8.530;2022-12-17T16:26:27;100845.09;;;-6.64
70389;BMP280;58659;49.050;8.530;2022-12-17T16:28:53;100838.88;;;-6.74
70389;BMP280;58659;49.050;8.530;2022-12-17T16:31:18;100833.63;;;-6.86
70389;BMP280;58659;49.050;8.530;2022-12-17T16:33:44;100838.50;;;-6.91
70389;BMP280;58659;49.050;8.530;2022-12-17T16:36:14;100842.81;;;-6.98